createdAt,value
2022-11-05T00:00:36.359Z,69.75
2022-11-05T00:03:22.378Z,69.91
2022-11-05T00:06:11.594Z,70.17
2022-11-05T00:08:59.528Z,70.40
2022-11-05T00:11:46.708Z,70.58
2022-11-05T00:14:33.012Z,70.48
2022-11-05T00:17:00.283Z,70.71
2022-11-05T00:19:27.104Z,70.70
2022-11-05T00:22:12.857Z,70.84
2022-11-05T00:24:58.428Z,70.84
2022-11-05T00:27:25.478Z,71.22
2022-11-05T00:29:52.321Z,71.49
2022-11-05T00:32:19.381Z,71.37
2022-11-05T00:34:46.170Z,71.57
2022-11-05T00:37:13.042Z,72.09
2022-11-05T00:39:41.164Z,72.16
2022-11-05T00:42:26.666Z,72.63
2022-11-05T00:45:02.504Z,72.81
2022-11-05T00:47:50.409Z,72.63
2022-11-05T00:50:22.586Z,72.71
2022-11-05T00:53:01.519Z,72.63
2022-11-05T00:55:38.168Z,72.63
2022-11-05T00:58:11.494Z,72.52
2022-11-05T01:00:41.722Z,72.07
2022-11-05T01:03:12.844Z,72.05
2022-11-05T01:05:45.956Z,72.38
2022-11-05T01:08:14.594Z,72.49
2022-11-05T01:10:43.692Z,72.25
2022-11-05T01:13:13.394Z,72.67
2022-11-05T01:15:41.179Z,72.65
2022-11-05T01:18:08.270Z,72.87
2022-11-05T01:20:35.378Z,72.91
2022-11-05T01:23:02.217Z,72.96
2022-11-05T01:25:29.208Z,73.03
2022-11-05T01:27:56.044Z,72.97
2022-11-05T01:30:23.530Z,73.11
2022-11-05T01:32:51.132Z,73.00
2022-11-05T01:35:19.353Z,73.15
2022-11-05T01:37:46.590Z,73.06
2022-11-05T01:40:21.229Z,73.10
2022-11-05T01:42:48.712Z,73.16
2022-11-05T01:45:22.923Z,73.00
2022-11-05T01:47:58.961Z,72.99
2022-11-05T01:50:39.404Z,72.68
2022-11-05T01:53:34.428Z,73.08
2022-11-05T01:56:09.617Z,73.06
2022-11-05T01:58:44.801Z,72.86
2022-11-05T02:01:12.652Z,72.75
2022-11-05T02:03:40.020Z,72.62
2022-11-05T02:06:09.434Z,73.06
2022-11-05T02:09:09.057Z,72.91
2022-11-05T02:11:36.128Z,73.21
2022-11-05T02:14:03.479Z,73.06
2022-11-05T02:16:48.605Z,73.17
2022-11-05T02:19:46.429Z,73.11
2022-11-05T02:22:25.459Z,73.18
2022-11-05T02:25:17.302Z,73.33
2022-11-05T02:27:47.074Z,73.46
2022-11-05T02:30:32.240Z,73.61
2022-11-05T02:33:16.210Z,73.46
2022-11-05T02:35:55.743Z,73.70
2022-11-05T02:39:03.721Z,73.75
2022-11-05T02:41:40.061Z,73.97
2022-11-05T02:44:28.758Z,73.90
2022-11-05T02:47:28.501Z,74.12
2022-11-05T02:50:17.004Z,74.24
2022-11-05T02:52:56.731Z,74.25
2022-11-05T02:55:45.169Z,74.15
2022-11-05T02:58:13.054Z,74.23
2022-11-05T03:00:50.730Z,74.38
2022-11-05T03:03:43.206Z,74.53
2022-11-05T03:06:25.453Z,74.36
2022-11-05T03:09:26.909Z,74.67
2022-11-05T03:12:03.117Z,74.74
2022-11-05T03:14:40.583Z,74.94
2022-11-05T03:17:26.822Z,75.02
2022-11-05T03:20:36.458Z,74.94
2022-11-05T03:23:25.452Z,75.11
2022-11-05T03:26:24.645Z,75.24
2022-11-05T03:28:56.425Z,75.24
2022-11-05T03:31:25.839Z,75.48
2022-11-05T03:33:55.070Z,75.59
2022-11-05T03:36:37.840Z,75.83
2022-11-05T03:39:08.790Z,75.66
2022-11-05T03:41:38.695Z,75.69
2022-11-05T03:44:11.273Z,76.09
2022-11-05T03:46:45.207Z,76.03
2022-11-05T03:49:19.265Z,76.16
2022-11-05T03:51:53.485Z,76.01
2022-11-05T03:54:21.402Z,76.06
2022-11-05T03:57:00.317Z,75.75
2022-11-05T03:59:30.020Z,75.88
2022-11-05T04:01:57.465Z,76.17
2022-11-05T04:04:25.130Z,76.45
2022-11-05T04:07:10.616Z,76.49
2022-11-05T04:09:55.991Z,76.41
2022-11-05T04:12:41.543Z,76.41
2022-11-05T04:15:08.792Z,76.39
2022-11-05T04:17:35.737Z,76.55
2022-11-05T04:20:21.192Z,76.57
2022-11-05T04:23:06.702Z,76.27
2022-11-05T04:25:33.904Z,76.47
2022-11-05T04:28:00.729Z,76.70
2022-11-05T04:30:27.840Z,76.82
2022-11-05T04:33:21.349Z,76.86
2022-11-05T04:35:49.397Z,76.72
2022-11-05T04:38:18.972Z,76.56
2022-11-05T04:40:46.942Z,76.65
2022-11-05T04:43:16.829Z,76.74
2022-11-05T04:45:44.370Z,76.77
2022-11-05T04:48:12.514Z,76.54
2022-11-05T04:50:39.485Z,76.64
2022-11-05T04:53:06.491Z,76.77
2022-11-05T04:55:33.719Z,76.92
2022-11-05T04:58:00.573Z,76.93
2022-11-05T05:00:27.734Z,76.96
2022-11-05T05:02:54.715Z,76.95
2022-11-05T05:05:22.838Z,76.90
2022-11-05T05:07:50.103Z,76.96
2022-11-05T05:10:17.533Z,77.06
2022-11-05T05:12:44.342Z,77.01
2022-11-05T05:15:11.573Z,77.20
2022-11-05T05:17:38.373Z,76.96
2022-11-05T05:20:25.974Z,76.94
2022-11-05T05:22:56.100Z,76.68
2022-11-05T05:25:23.166Z,76.94
2022-11-05T05:27:50.080Z,76.90
2022-11-05T05:30:16.944Z,76.87
2022-11-05T05:32:44.074Z,77.02
2022-11-05T05:35:11.214Z,76.93
2022-11-05T05:37:38.856Z,76.96
2022-11-05T05:40:06.147Z,77.10
2022-11-05T05:42:34.544Z,76.95
2022-11-05T05:45:03.594Z,77.15
2022-11-05T05:47:30.425Z,77.13
2022-11-05T05:49:57.611Z,76.91
2022-11-05T05:52:24.401Z,77.15
2022-11-05T05:54:51.302Z,77.24
2022-11-05T05:57:18.165Z,77.28
2022-11-05T05:59:44.998Z,77.22
2022-11-05T06:02:12.802Z,77.25
2022-11-05T06:04:39.971Z,77.49
2022-11-05T06:07:07.686Z,77.59
2022-11-05T06:09:34.789Z,77.33
2022-11-05T06:12:01.582Z,77.29
2022-11-05T06:14:28.491Z,77.14
2022-11-05T06:16:55.400Z,77.02
2022-11-05T06:19:22.406Z,76.88
2022-11-05T06:21:49.357Z,76.98
2022-11-05T06:24:16.354Z,76.77
2022-11-05T06:26:45.358Z,76.66
2022-11-05T06:29:12.278Z,76.55
2022-11-05T06:31:39.857Z,76.47
2022-11-05T06:34:06.801Z,76.70
2022-11-05T06:36:34.257Z,76.33
2022-11-05T06:39:01.162Z,76.11
2022-11-05T06:41:28.298Z,76.12
2022-11-05T06:43:55.316Z,76.06
2022-11-05T06:46:22.315Z,75.33
2022-11-05T06:48:49.329Z,75.26
2022-11-05T06:51:16.415Z,75.12
2022-11-05T06:53:43.259Z,75.16
2022-11-05T06:56:10.449Z,75.18
2022-11-05T06:58:37.974Z,75.11
2022-11-05T07:01:08.673Z,74.71
2022-11-05T07:03:37.316Z,74.81
2022-11-05T07:06:05.341Z,74.66
2022-11-05T07:08:33.785Z,74.68
2022-11-05T07:11:01.051Z,74.79
2022-11-05T07:13:28.129Z,74.57
2022-11-05T07:15:55.086Z,74.69
2022-11-05T07:18:22.481Z,74.39
2022-11-05T07:20:49.557Z,74.23
2022-11-05T07:23:16.997Z,73.58
2022-11-05T07:25:43.919Z,73.60
2022-11-05T07:28:11.249Z,73.58
2022-11-05T07:30:38.130Z,73.34
2022-11-05T07:33:05.230Z,73.00
2022-11-05T07:35:32.148Z,72.46
2022-11-05T07:37:59.668Z,72.12
2022-11-05T07:40:28.674Z,71.47
2022-11-05T07:43:00.941Z,71.12
2022-11-05T07:45:30.015Z,71.46
2022-11-05T07:48:00.456Z,71.01
2022-11-05T07:50:33.714Z,70.31
2022-11-05T07:53:02.663Z,70.42
2022-11-05T07:55:30.334Z,70.15
2022-11-05T07:57:57.662Z,69.83
2022-11-05T08:00:26.275Z,69.00
2022-11-05T08:03:08.210Z,69.03
2022-11-05T08:05:38.229Z,68.65
2022-11-05T08:08:06.714Z,68.42
2022-11-05T08:10:34.276Z,68.46
2022-11-05T08:13:01.543Z,68.10
2022-11-05T08:15:28.776Z,67.74
2022-11-05T08:18:00.048Z,67.77
2022-11-05T08:20:27.810Z,68.04
2022-11-05T08:22:55.662Z,67.65
2022-11-05T08:25:23.197Z,67.20
2022-11-05T08:28:01.565Z,67.24
2022-11-05T08:30:29.266Z,67.04
2022-11-05T08:32:58.373Z,66.54
2022-11-05T08:35:26.430Z,66.57
2022-11-05T08:38:02.651Z,66.51
2022-11-05T08:40:31.655Z,66.08
2022-11-05T08:43:00.128Z,66.09
2022-11-05T08:45:27.761Z,66.55
2022-11-05T08:48:01.768Z,66.18
2022-11-05T08:50:29.096Z,65.52
2022-11-05T08:52:56.245Z,65.16
2022-11-05T08:55:23.634Z,65.29
2022-11-05T08:58:02.123Z,64.88
2022-11-05T09:00:31.598Z,64.69
2022-11-05T09:03:00.960Z,63.33
2022-11-05T09:05:28.849Z,62.22
2022-11-05T09:08:00.814Z,61.84
2022-11-05T09:10:28.625Z,61.74
2022-11-05T09:12:55.655Z,60.85
2022-11-05T09:15:23.429Z,60.70
2022-11-05T09:17:51.201Z,60.93
2022-11-05T09:20:18.143Z,60.12
2022-11-05T09:22:46.285Z,60.28
2022-11-05T09:25:15.227Z,60.70
2022-11-05T09:27:42.982Z,60.57
2022-11-05T09:30:11.270Z,60.43
2022-11-05T09:32:38.902Z,59.89
2022-11-05T09:35:07.101Z,59.49
2022-11-05T09:37:34.278Z,59.24
2022-11-05T09:40:01.379Z,58.68
2022-11-05T09:42:35.678Z,58.81
2022-11-05T09:45:08.679Z,58.55
2022-11-05T09:47:44.434Z,58.87
2022-11-05T09:50:19.270Z,58.55
2022-11-05T09:52:46.219Z,57.96
2022-11-05T09:55:41.530Z,57.87
2022-11-05T09:58:21.250Z,56.63
2022-11-05T10:00:52.475Z,56.61
2022-11-05T10:03:23.678Z,56.42
2022-11-05T10:05:52.610Z,55.23
2022-11-05T10:08:31.785Z,55.14
2022-11-05T10:11:10.855Z,55.16
2022-11-05T10:13:56.958Z,54.87
2022-11-05T10:16:35.412Z,54.96
2022-11-05T10:19:24.681Z,54.42
2022-11-05T10:22:17.110Z,54.11
2022-11-05T10:24:47.167Z,53.45
2022-11-05T10:27:23.289Z,53.52
2022-11-05T10:29:50.523Z,53.49
2022-11-05T10:32:34.618Z,53.20
2022-11-05T10:35:06.664Z,53.16
2022-11-05T10:37:39.550Z,53.02
2022-11-05T10:40:39.826Z,52.70
2022-11-05T10:43:13.056Z,53.14
2022-11-05T10:45:52.608Z,52.46
2022-11-05T10:48:22.112Z,52.15
2022-11-05T10:50:49.234Z,52.27
2022-11-05T10:53:35.774Z,51.73
2022-11-05T10:56:03.390Z,51.62
2022-11-05T10:58:32.573Z,51.79
2022-11-05T11:00:59.424Z,50.90
2022-11-05T11:03:46.277Z,50.77
2022-11-05T11:06:32.646Z,50.61
2022-11-05T11:09:03.529Z,50.91
2022-11-05T11:11:32.793Z,50.62
2022-11-05T11:14:01.560Z,50.59
2022-11-05T11:16:45.214Z,50.58
2022-11-05T11:19:21.830Z,50.69
2022-11-05T11:22:10.876Z,50.48
2022-11-05T11:24:40.278Z,50.23
2022-11-05T11:27:10.284Z,50.72
2022-11-05T11:29:45.150Z,50.54
2022-11-05T11:32:17.189Z,50.84
2022-11-05T11:34:45.725Z,50.78
2022-11-05T11:37:29.211Z,50.82
2022-11-05T11:40:13.180Z,50.64
2022-11-05T11:42:44.253Z,50.35
2022-11-05T11:45:33.090Z,50.25
2022-11-05T11:48:05.619Z,50.09
2022-11-05T11:50:44.282Z,50.26
2022-11-05T11:53:20.221Z,49.46
2022-11-05T11:56:12.807Z,49.45
2022-11-05T11:58:41.840Z,49.11
2022-11-05T12:01:18.191Z,48.79
2022-11-05T12:03:53.117Z,48.86
2022-11-05T12:07:04.700Z,49.21
2022-11-05T12:10:13.664Z,49.62
2022-11-05T12:12:55.717Z,49.84
2022-11-05T12:15:25.773Z,49.68
2022-11-05T12:18:01.833Z,49.66
2022-11-05T12:20:55.365Z,49.53
2022-11-05T12:23:59.637Z,49.61
2022-11-05T12:26:41.101Z,49.87
2022-11-05T12:29:40.507Z,50.29
2022-11-05T12:32:29.442Z,50.24
2022-11-05T12:35:15.331Z,50.47
2022-11-05T12:38:13.137Z,50.63
2022-11-05T12:40:50.962Z,50.76
2022-11-05T12:43:26.943Z,50.90
2022-11-05T12:46:10.485Z,50.64
2022-11-05T12:48:37.533Z,50.29
2022-11-05T12:51:14.383Z,50.41
2022-11-05T12:54:13.745Z,50.44
2022-11-05T12:56:44.160Z,50.16
2022-11-05T12:59:17.025Z,50.47
2022-11-05T13:01:49.071Z,50.12
2022-11-05T13:05:01.879Z,50.18
2022-11-05T13:07:34.686Z,50.55
2022-11-05T13:10:14.394Z,51.01
2022-11-05T13:12:43.238Z,51.21
2022-11-05T13:15:29.308Z,51.37
2022-11-05T13:18:03.219Z,51.32
2022-11-05T13:20:36.309Z,51.05
2022-11-05T13:23:24.126Z,51.14
2022-11-05T13:25:57.887Z,51.00
2022-11-05T13:28:54.685Z,50.77
2022-11-05T13:31:49.290Z,51.04
2022-11-05T13:34:16.184Z,50.83
2022-11-05T13:37:06.749Z,51.09
2022-11-05T13:39:50.718Z,51.03
2022-11-05T13:42:32.685Z,50.98
2022-11-05T13:45:28.155Z,51.15
2022-11-05T13:48:11.638Z,51.32
2022-11-05T13:51:06.722Z,51.62
2022-11-05T13:53:46.025Z,51.45
2022-11-05T13:56:30.606Z,51.53
2022-11-05T13:59:12.573Z,51.34
2022-11-05T14:01:45.223Z,51.33
2022-11-05T14:04:27.204Z,51.56
2022-11-05T14:07:04.870Z,51.79
2022-11-05T14:09:35.641Z,51.94
2022-11-05T14:12:05.173Z,51.65
2022-11-05T14:14:43.625Z,51.94
2022-11-05T14:17:10.450Z,52.08
2022-11-05T14:20:06.354Z,52.18
2022-11-05T14:22:33.307Z,52.13
2022-11-05T14:25:01.682Z,52.11
2022-11-05T14:27:29.970Z,51.91
2022-11-05T14:29:57.282Z,51.97
2022-11-05T14:32:45.764Z,51.84
2022-11-05T14:35:15.664Z,51.75
2022-11-05T14:37:54.173Z,51.75
2022-11-05T14:40:27.312Z,52.01
2022-11-05T14:43:05.666Z,51.75
2022-11-05T14:45:39.291Z,51.80
2022-11-05T14:48:25.973Z,51.99
2022-11-05T14:50:53.061Z,52.24
2022-11-05T14:53:28.679Z,52.08
2022-11-05T14:56:06.341Z,52.11
2022-11-05T14:58:38.813Z,52.07
2022-11-05T15:01:09.464Z,52.48
2022-11-05T15:03:59.423Z,52.30
2022-11-05T15:06:35.188Z,52.63
2022-11-05T15:09:21.188Z,52.71
2022-11-05T15:11:56.958Z,52.90
2022-11-05T15:14:51.865Z,53.26
2022-11-05T15:17:32.329Z,53.45
2022-11-05T15:20:15.093Z,53.59
2022-11-05T15:22:44.934Z,53.95
2022-11-05T15:25:47.757Z,53.80
2022-11-05T15:28:17.089Z,54.57
2022-11-05T15:31:32.040Z,54.90
2022-11-05T15:34:17.149Z,55.16
2022-11-05T15:36:53.964Z,55.52
2022-11-05T15:39:47.569Z,55.62
2022-11-05T15:42:17.521Z,55.98
2022-11-05T15:44:56.279Z,56.51
2022-11-05T15:47:30.273Z,56.83
2022-11-05T15:50:01.309Z,57.11
2022-11-05T15:52:36.441Z,57.64
2022-11-05T15:55:29.809Z,57.73
2022-11-05T15:58:03.993Z,57.62
2022-11-05T16:00:33.906Z,57.55
2022-11-05T16:03:05.761Z,57.77
2022-11-05T16:05:36.067Z,57.85
2022-11-05T16:08:06.388Z,57.74
2022-11-05T16:10:37.193Z,57.76
2022-11-05T16:13:30.438Z,57.65
2022-11-05T16:15:59.639Z,57.85
2022-11-05T16:18:32.677Z,57.70
2022-11-05T16:21:08.463Z,58.20
2022-11-05T16:23:55.887Z,57.99
2022-11-05T16:29:35.071Z,58.29
2022-11-05T16:32:04.832Z,58.12
2022-11-05T16:34:45.766Z,58.45
2022-11-05T16:37:15.054Z,58.47
2022-11-05T16:39:41.891Z,58.47
2022-11-05T16:42:39.030Z,58.78
2022-11-05T16:45:07.949Z,58.78
2022-11-05T16:47:34.915Z,58.78
2022-11-05T16:50:02.240Z,58.72
2022-11-05T16:52:29.997Z,59.08
2022-11-05T16:54:56.985Z,59.17
2022-11-05T16:57:31.268Z,59.33
2022-11-05T17:00:00.201Z,59.11
2022-11-05T17:02:27.675Z,59.14
2022-11-05T17:04:54.749Z,59.17
2022-11-05T17:07:21.871Z,59.11
2022-11-05T17:09:48.864Z,58.53
2022-11-05T17:12:15.722Z,58.41
2022-11-05T17:14:42.660Z,58.26
2022-11-05T17:17:10.608Z,58.41
2022-11-05T17:19:42.326Z,58.46
2022-11-05T17:22:09.408Z,58.70
2022-11-05T17:24:36.305Z,58.92
2022-11-05T17:27:03.248Z,58.37
2022-11-05T17:29:30.171Z,58.56
2022-11-05T17:31:57.002Z,58.72
2022-11-05T17:34:24.170Z,58.49
2022-11-05T17:36:51.272Z,58.17
2022-11-05T17:39:18.306Z,58.03
2022-11-05T17:41:45.245Z,58.29
2022-11-05T17:44:12.544Z,57.86
2022-11-05T17:46:39.398Z,57.67
2022-11-05T17:49:06.385Z,57.73
2022-11-05T17:51:34.611Z,57.63
2022-11-05T17:54:01.689Z,56.99
2022-11-05T17:56:34.492Z,56.95
2022-11-05T17:59:03.714Z,56.91
2022-11-05T18:01:33.340Z,57.20
2022-11-05T18:04:07.235Z,57.14
2022-11-05T18:06:39.944Z,57.09
2022-11-05T18:09:08.867Z,57.05
2022-11-05T18:11:37.363Z,57.46
2022-11-05T18:14:05.066Z,57.40
2022-11-05T18:16:32.534Z,57.50
2022-11-05T18:18:59.637Z,57.36
2022-11-05T18:21:26.724Z,57.49
2022-11-05T18:23:53.630Z,57.31
2022-11-05T18:26:20.692Z,56.97
2022-11-05T18:28:47.641Z,56.76
2022-11-05T18:31:18.452Z,56.92
2022-11-05T18:33:46.035Z,56.95
2022-11-05T18:36:20.869Z,57.08
2022-11-05T18:38:48.248Z,57.04
2022-11-05T18:41:15.895Z,57.41
2022-11-05T18:43:43.280Z,57.92
2022-11-05T18:46:29.263Z,58.10
2022-11-05T18:48:59.995Z,58.20
2022-11-05T18:51:28.106Z,58.73
2022-11-05T18:53:55.234Z,58.84
2022-11-05T18:56:23.330Z,58.88
2022-11-05T18:58:50.626Z,59.05
2022-11-05T19:01:20.709Z,59.23
2022-11-05T19:03:49.646Z,59.52
2022-11-05T19:06:16.755Z,59.39
2022-11-05T19:08:44.210Z,59.68
2022-11-05T19:11:15.154Z,59.27
2022-11-05T19:13:42.865Z,59.25
2022-11-05T19:16:18.975Z,59.08
2022-11-05T19:18:46.356Z,58.85
2022-11-05T19:21:16.201Z,58.70
2022-11-05T19:23:43.344Z,58.68
2022-11-05T19:26:16.629Z,58.46
2022-11-05T19:28:44.224Z,58.69
2022-11-05T19:31:14.955Z,58.74
2022-11-05T19:33:43.290Z,58.64
2022-11-05T19:36:12.036Z,58.86
2022-11-05T19:38:40.035Z,58.61
2022-11-05T19:41:14.747Z,58.83
2022-11-05T19:43:42.320Z,59.02
2022-11-05T19:46:14.710Z,58.91
2022-11-05T19:48:43.474Z,59.19
2022-11-05T19:51:17.302Z,59.09
2022-11-05T19:53:44.790Z,59.08
2022-11-05T19:56:15.344Z,58.83
2022-11-05T19:58:43.559Z,59.21
2022-11-05T20:01:12.320Z,59.38
2022-11-05T20:03:40.414Z,59.43
2022-11-05T20:06:16.005Z,59.42
2022-11-05T20:09:07.104Z,59.53
2022-11-05T20:11:31.940Z,59.63
2022-11-05T20:13:58.813Z,59.44
2022-11-05T20:16:29.196Z,59.81
2022-11-05T20:18:57.751Z,59.90
2022-11-05T20:21:24.583Z,59.97
2022-11-05T20:23:51.500Z,60.29
2022-11-05T20:26:18.311Z,60.30
2022-11-05T20:28:45.644Z,59.83
2022-11-05T20:31:14.706Z,59.87
2022-11-05T20:33:43.168Z,60.48
2022-11-05T20:36:14.038Z,60.43
2022-11-05T20:38:41.164Z,60.08
2022-11-05T20:41:10.667Z,60.39
2022-11-05T20:43:38.627Z,60.51
2022-11-05T20:46:05.721Z,60.86
2022-11-05T20:48:33.838Z,60.98
2022-11-05T20:51:05.817Z,60.84
2022-11-05T20:53:32.934Z,61.12
2022-11-05T20:56:03.762Z,60.86
2022-11-05T20:58:35.240Z,61.35
2022-11-05T21:01:02.376Z,61.34
2022-11-05T21:03:29.501Z,61.48
2022-11-05T21:06:00.200Z,61.74
2022-11-05T21:08:28.033Z,61.54
2022-11-05T21:10:56.167Z,61.29
2022-11-05T21:13:23.896Z,61.60
2022-11-05T21:15:53.224Z,61.59
2022-11-05T21:18:22.558Z,61.64
2022-11-05T21:20:50.203Z,61.61
2022-11-05T21:23:17.588Z,61.67
2022-11-05T21:25:44.975Z,61.89
2022-11-05T21:28:14.232Z,62.11
2022-11-05T21:30:45.007Z,61.80
2022-11-05T21:33:14.585Z,62.07
2022-11-05T21:35:46.562Z,61.79
2022-11-05T21:38:16.395Z,61.74
2022-11-05T21:40:44.736Z,61.55
2022-11-05T21:43:12.219Z,61.87
2022-11-05T21:45:41.135Z,62.22
2022-11-05T21:48:09.082Z,62.12
2022-11-05T21:50:57.227Z,62.17
2022-11-05T21:53:42.689Z,61.88
2022-11-05T21:56:41.773Z,62.22
2022-11-05T21:59:30.359Z,61.95
2022-11-05T22:02:01.691Z,62.06
2022-11-05T22:04:34.095Z,62.35
2022-11-05T22:07:01.543Z,62.72
2022-11-05T22:09:28.893Z,62.74
2022-11-05T22:11:55.974Z,62.26
2022-11-05T22:14:23.825Z,62.53
2022-11-05T22:16:50.903Z,62.55
2022-11-05T22:19:18.033Z,62.83
2022-11-05T22:21:45.221Z,63.10
2022-11-05T22:24:12.040Z,63.09
2022-11-05T22:26:39.543Z,63.19
2022-11-05T22:29:07.388Z,63.09
2022-11-05T22:31:36.568Z,63.09
2022-11-05T22:34:05.060Z,63.39
2022-11-05T22:36:33.510Z,63.31
2022-11-05T22:39:01.098Z,63.69
2022-11-05T22:41:28.295Z,63.63
2022-11-05T22:43:56.031Z,63.70
2022-11-05T22:46:25.470Z,63.74
2022-11-05T22:48:53.426Z,63.57
2022-11-05T22:51:23.225Z,63.81
2022-11-05T22:53:50.922Z,64.06
2022-11-05T22:56:22.395Z,63.95
2022-11-05T22:58:51.323Z,64.21
2022-11-05T23:01:19.491Z,64.31
2022-11-05T23:03:48.259Z,64.38
2022-11-05T23:06:39.693Z,64.46
2022-11-05T23:09:41.298Z,64.47
2022-11-05T23:12:31.930Z,64.46
2022-11-05T23:15:00.905Z,64.68
2022-11-05T23:17:47.165Z,64.55
2022-11-05T23:20:35.743Z,64.83
2022-11-05T23:23:21.826Z,64.48
2022-11-05T23:25:49.016Z,64.33
2022-11-05T23:28:21.211Z,64.39
2022-11-05T23:31:06.625Z,64.44
2022-11-05T23:33:34.835Z,64.79
2022-11-05T23:36:25.501Z,64.41
2022-11-05T23:38:52.478Z,64.42
2022-11-05T23:41:42.417Z,64.79
2022-11-05T23:44:27.646Z,65.02
2022-11-05T23:47:20.749Z,64.56
2022-11-05T23:49:47.546Z,63.94
2022-11-05T23:52:14.528Z,64.39
2022-11-05T23:54:41.443Z,64.53
2022-11-05T23:57:09.515Z,64.38
2022-11-05T23:59:36.348Z,64.39
